Terminal Aerodrome Forecast
Issued by NWS Billings, MT

Home | Current Version | Previous Version | Graphics & Text | Print | Product List | Glossary On
Versions: 1 2 3 4 5 6 7 8 9 10 11 12 13 14 15 16 17 18 19 20 21 22 23 24 25 26 27 28 29
000
FTUS45 KBYZ 242338
TAFMLS
TAF
KMLS 242338Z 2500/2524 27010KT P6SM VCTS BKN080CB OVC100
     FM250200 09008KT P6SM VCSH FEW070 BKN100
     FM251600 15011KT P6SM BKN080
     FM252100 31012G20KT 5SM -RA SCT030 BKN050=

USA.gov is the U.S. government's official web portal to all federal, state and local government web resources and services.